createdAt,value
2018-05-08T00:01:32.898Z,16.50
2018-05-08T00:04:00.319Z,16.50
2018-05-08T00:06:27.756Z,16.50
2018-05-08T00:08:56.683Z,16.50
2018-05-08T00:11:24.016Z,16.40
2018-05-08T00:13:51.420Z,16.40
2018-05-08T00:16:18.836Z,16.40
2018-05-08T00:18:46.239Z,16.40
2018-05-08T00:21:13.655Z,16.30
2018-05-08T00:23:41.090Z,16.30
2018-05-08T00:26:08.525Z,16.20
2018-05-08T00:28:35.936Z,16.20
2018-05-08T00:31:03.364Z,16.20
2018-05-08T00:33:30.769Z,16.10
2018-05-08T00:35:58.193Z,16.20
2018-05-08T00:38:26.949Z,16.20
2018-05-08T00:40:54.356Z,16.20
2018-05-08T00:43:21.780Z,16.20
2018-05-08T00:45:49.193Z,16.20
2018-05-08T00:48:16.616Z,16.20
2018-05-08T00:50:44.016Z,16.20
2018-05-08T00:53:11.435Z,16.20
2018-05-08T00:55:38.859Z,16.20
2018-05-08T00:58:06.269Z,16.20
2018-05-08T01:00:33.673Z,16.20
2018-05-08T01:03:01.876Z,16.10
2018-05-08T01:05:29.310Z,16.10
2018-05-08T01:07:56.724Z,16.10
2018-05-08T01:10:24.140Z,16.10
2018-05-08T01:12:51.568Z,16.00
2018-05-08T01:15:18.977Z,16.00
2018-05-08T01:17:46.435Z,15.90
2018-05-08T01:20:13.837Z,16.00
2018-05-08T01:22:42.031Z,15.90
2018-05-08T01:25:10.212Z,15.90
2018-05-08T01:27:37.741Z,15.90
2018-05-08T01:30:05.853Z,15.90
2018-05-08T01:32:34.040Z,15.90
2018-05-08T01:35:01.464Z,15.90
2018-05-08T01:37:28.884Z,15.80
2018-05-08T01:39:57.772Z,15.70
2018-05-08T01:42:25.204Z,15.70
2018-05-08T01:44:52.639Z,15.70
2018-05-08T01:47:20.061Z,15.60
2018-05-08T01:49:47.464Z,15.60
2018-05-08T01:52:15.669Z,15.60
2018-05-08T01:54:43.081Z,15.50
2018-05-08T01:57:10.502Z,15.50
2018-05-08T01:59:37.909Z,15.50
2018-05-08T02:02:05.326Z,15.50
2018-05-08T02:04:33.503Z,15.50
2018-05-08T02:07:01.684Z,15.50
2018-05-08T02:09:29.897Z,15.40
2018-05-08T02:11:57.573Z,15.40
2018-05-08T02:14:25.025Z,15.40
2018-05-08T02:16:53.236Z,15.30
2018-05-08T02:19:20.639Z,15.30
2018-05-08T02:21:48.054Z,15.30
2018-05-08T02:24:15.476Z,15.20
2018-05-08T02:26:42.896Z,15.30
2018-05-08T02:29:10.329Z,15.20
2018-05-08T02:31:37.743Z,15.30
2018-05-08T02:34:05.232Z,15.20
2018-05-08T02:36:32.666Z,15.20
2018-05-08T02:39:00.860Z,15.20
2018-05-08T02:41:28.292Z,15.20
2018-05-08T02:43:55.701Z,15.20
2018-05-08T02:46:23.129Z,15.10
2018-05-08T02:48:50.545Z,15.10
2018-05-08T02:51:17.963Z,15.00
2018-05-08T02:53:45.392Z,15.00
2018-05-08T02:56:12.829Z,14.90
2018-05-08T02:58:41.022Z,14.90
2018-05-08T03:01:09.221Z,14.80
2018-05-08T03:03:36.653Z,14.80
2018-05-08T03:06:04.065Z,14.80
2018-05-08T03:08:31.476Z,14.70
2018-05-08T03:10:58.892Z,14.70
2018-05-08T03:13:26.304Z,14.60
2018-05-08T03:15:53.754Z,14.60
2018-05-08T03:18:21.172Z,14.60
2018-05-08T03:20:48.597Z,14.60
2018-05-08T03:23:16.029Z,14.70
2018-05-08T03:25:43.428Z,14.70
2018-05-08T03:28:10.870Z,14.70
2018-05-08T03:30:38.282Z,14.60
2018-05-08T03:33:05.703Z,14.50
2018-05-08T03:35:33.179Z,14.50
2018-05-08T03:38:01.343Z,14.30
2018-05-08T03:40:28.764Z,14.30
2018-05-08T03:42:56.217Z,14.20
2018-05-08T03:45:23.647Z,14.20
2018-05-08T03:47:51.828Z,14.20
2018-05-08T03:50:20.043Z,14.10
2018-05-08T03:52:47.468Z,14.10
2018-05-08T03:55:14.908Z,14.10
2018-05-08T03:57:42.344Z,14.10
2018-05-08T04:00:09.767Z,14.20
2018-05-08T04:02:49.038Z,14.20
2018-05-08T04:05:29.150Z,14.10
2018-05-08T04:08:08.296Z,14.10
2018-05-08T04:10:35.705Z,14.10
2018-05-08T04:13:03.880Z,14.00
2018-05-08T04:15:31.389Z,14.00
2018-05-08T04:18:00.057Z,13.90
2018-05-08T04:20:29.160Z,13.90
2018-05-08T04:22:56.574Z,13.90
2018-05-08T04:25:25.603Z,14.00
2018-05-08T04:27:53.012Z,14.00
2018-05-08T04:30:21.217Z,14.00
2018-05-08T04:32:48.673Z,14.00
2018-05-08T04:35:16.863Z,14.00
2018-05-08T04:37:45.053Z,14.00
2018-05-08T04:40:13.249Z,14.00
2018-05-08T04:42:41.424Z,14.00
2018-05-08T04:45:09.597Z,14.10
2018-05-08T04:47:37.802Z,14.10
2018-05-08T04:50:05.224Z,14.10
2018-05-08T04:52:32.653Z,14.20
2018-05-08T04:55:00.066Z,14.20
2018-05-08T04:57:27.492Z,14.20
2018-05-08T04:59:54.928Z,14.30
2018-05-08T05:02:23.691Z,14.40
2018-05-08T05:04:51.212Z,14.40
2018-05-08T05:07:18.648Z,14.50
2018-05-08T05:09:46.826Z,14.60
2018-05-08T05:12:14.243Z,14.60
2018-05-08T05:14:41.669Z,14.70
2018-05-08T05:17:09.091Z,14.70
2018-05-08T05:19:36.502Z,14.70
2018-05-08T05:22:03.913Z,14.70
2018-05-08T05:24:31.403Z,14.70
2018-05-08T05:26:58.765Z,14.70
2018-05-08T05:29:26.229Z,14.80
2018-05-08T05:31:53.628Z,14.90
2018-05-08T05:34:21.044Z,14.90
2018-05-08T05:36:48.525Z,15.00
2018-05-08T05:39:16.718Z,15.10
2018-05-08T05:41:45.145Z,15.10
2018-05-08T05:44:12.560Z,15.10
2018-05-08T05:46:40.039Z,15.20
2018-05-08T05:49:07.444Z,15.20
2018-05-08T05:51:34.873Z,15.30
2018-05-08T05:54:02.283Z,15.40
2018-05-08T05:56:30.656Z,15.50
2018-05-08T05:58:58.073Z,15.60
2018-05-08T06:01:26.292Z,15.70
2018-05-08T06:03:54.469Z,15.70
2018-05-08T06:06:21.938Z,15.70
2018-05-08T06:08:49.296Z,15.80
2018-05-08T06:11:16.729Z,15.90
2018-05-08T06:13:44.205Z,16.00
2018-05-08T06:16:11.611Z,16.10
2018-05-08T06:18:39.050Z,16.10
2018-05-08T06:21:06.473Z,16.20
2018-05-08T06:23:33.910Z,16.30
2018-05-08T06:26:01.389Z,16.50
2018-05-08T06:28:29.654Z,16.70
2018-05-08T06:30:57.024Z,16.70
2018-05-08T06:33:25.221Z,16.90
2018-05-08T06:35:52.699Z,16.80
2018-05-08T06:38:21.054Z,17.00
2018-05-08T06:40:48.497Z,17.00
2018-05-08T06:43:15.916Z,17.10
2018-05-08T06:45:43.339Z,17.20
2018-05-08T06:48:10.865Z,17.20
2018-05-08T06:50:39.080Z,17.40
2018-05-08T06:53:06.544Z,17.40
2018-05-08T06:55:33.988Z,17.40
2018-05-08T06:58:02.688Z,17.60
2018-05-08T07:00:31.783Z,17.70
2018-05-08T07:02:59.979Z,17.70
2018-05-08T07:05:27.436Z,17.70
2018-05-08T07:07:55.683Z,17.90
2018-05-08T07:10:23.820Z,17.90
2018-05-08T07:12:51.261Z,17.90
2018-05-08T07:15:18.679Z,18.00
2018-05-08T07:17:46.100Z,18.00
2018-05-08T07:20:13.626Z,18.10
2018-05-08T07:22:41.046Z,18.10
2018-05-08T07:25:09.366Z,18.20
2018-05-08T07:27:37.541Z,18.30
2018-05-08T07:30:05.040Z,18.40
2018-05-08T07:32:32.382Z,18.50
2018-05-08T07:34:59.855Z,18.50
2018-05-08T07:37:27.268Z,18.60
2018-05-08T07:39:54.709Z,18.70
2018-05-08T07:42:22.137Z,18.80
2018-05-08T07:44:50.327Z,18.90
2018-05-08T07:47:18.515Z,19.00
2018-05-08T07:49:46.721Z,19.00
2018-05-08T07:52:14.147Z,19.00
2018-05-08T07:54:41.561Z,19.10
2018-05-08T07:57:08.974Z,19.20
2018-05-08T07:59:36.419Z,19.20
2018-05-08T08:02:03.828Z,19.30
2018-05-08T08:04:33.010Z,19.50
2018-05-08T08:07:00.421Z,19.40
2018-05-08T08:09:28.646Z,19.60
2018-05-08T08:11:56.097Z,19.60
2018-05-08T08:14:24.342Z,19.70
2018-05-08T08:16:51.737Z,19.70
2018-05-08T08:19:19.947Z,19.80
2018-05-08T08:21:47.432Z,19.70
2018-05-08T08:24:14.893Z,19.80
2018-05-08T08:26:42.348Z,19.90
2018-05-08T08:29:09.835Z,20.00
2018-05-08T08:31:37.242Z,20.20
2018-05-08T08:34:04.724Z,20.30
2018-05-08T08:36:32.150Z,20.40
2018-05-08T08:38:59.605Z,20.50
2018-05-08T08:41:27.024Z,20.60
2018-05-08T08:43:55.235Z,20.60
2018-05-08T08:46:22.653Z,20.60
2018-05-08T08:48:50.084Z,20.70
2018-05-08T08:51:17.513Z,20.80
2018-05-08T08:53:44.930Z,20.90
2018-05-08T08:56:12.365Z,21.00
2018-05-08T08:58:40.576Z,21.10
2018-05-08T09:01:08.011Z,21.10
2018-05-08T09:03:36.213Z,21.30
2018-05-08T09:06:04.805Z,21.30
2018-05-08T09:08:33.952Z,21.40
2018-05-08T09:11:01.363Z,21.40
2018-05-08T09:13:29.040Z,21.50
2018-05-08T09:15:56.433Z,21.40
2018-05-08T09:18:23.852Z,21.40
2018-05-08T09:20:51.270Z,21.50
2018-05-08T09:23:18.693Z,21.40
2018-05-08T09:25:46.108Z,21.50
2018-05-08T09:28:13.521Z,21.50
2018-05-08T09:30:40.959Z,21.50
2018-05-08T09:33:08.390Z,21.50
2018-05-08T09:35:35.801Z,21.60
2018-05-08T09:38:03.212Z,21.60
2018-05-08T09:40:30.653Z,21.70
2018-05-08T09:42:58.093Z,21.70
2018-05-08T09:45:25.557Z,21.70
2018-05-08T09:47:53.733Z,21.80
2018-05-08T09:50:21.150Z,21.70
2018-05-08T09:52:48.560Z,21.90
2018-05-08T09:55:16.783Z,22.00
2018-05-08T09:57:44.205Z,22.00
2018-05-08T10:00:11.661Z,22.10
2018-05-08T10:02:39.081Z,22.20
2018-05-08T10:05:06.754Z,22.20
2018-05-08T10:07:35.153Z,22.10
2018-05-08T10:10:02.596Z,22.10
2018-05-08T10:12:30.042Z,22.10
2018-05-08T10:14:57.461Z,22.10
2018-05-08T10:17:24.876Z,22.20
2018-05-08T10:19:52.300Z,22.30
2018-05-08T10:22:19.776Z,22.30
2018-05-08T10:24:47.324Z,22.30
2018-05-08T10:27:15.494Z,22.40
2018-05-08T10:29:42.920Z,22.40
2018-05-08T10:32:10.355Z,22.40
2018-05-08T10:34:37.759Z,22.50
2018-05-08T10:37:06.517Z,22.70
2018-05-08T10:39:33.928Z,22.70
2018-05-08T10:42:02.030Z,22.80
2018-05-08T10:44:29.433Z,22.90
2018-05-08T10:46:56.852Z,22.90
2018-05-08T10:49:24.372Z,22.90
2018-05-08T10:51:52.565Z,22.90
2018-05-08T10:54:19.984Z,22.90
2018-05-08T10:56:47.596Z,23.00
2018-05-08T10:59:15.752Z,23.10
2018-05-08T11:01:44.012Z,23.20
2018-05-08T11:04:11.418Z,23.20
2018-05-08T11:06:38.843Z,23.30
2018-05-08T11:09:07.076Z,23.30
2018-05-08T11:11:34.505Z,23.30
2018-05-08T11:14:01.927Z,23.40
2018-05-08T11:16:30.122Z,23.40
2018-05-08T11:18:57.628Z,23.40
2018-05-08T11:21:25.074Z,23.40
2018-05-08T11:23:52.492Z,23.60
2018-05-08T11:26:19.905Z,23.70
2018-05-08T11:28:47.384Z,23.80
2018-05-08T11:31:14.841Z,23.80
2018-05-08T11:33:42.326Z,23.80
2018-05-08T11:36:09.744Z,23.80
2018-05-08T11:38:37.373Z,23.80
2018-05-08T11:41:04.796Z,23.90
2018-05-08T11:43:33.009Z,24.00
2018-05-08T11:46:00.430Z,24.10
2018-05-08T11:48:28.670Z,24.30
2018-05-08T11:50:56.841Z,24.40
2018-05-08T11:53:24.285Z,24.40
2018-05-08T11:55:52.503Z,24.50
2018-05-08T11:58:20.659Z,24.70
2018-05-08T12:00:48.092Z,24.70
2018-05-08T12:03:15.522Z,25.00
2018-05-08T12:05:42.993Z,25.30
2018-05-08T12:08:10.555Z,25.60
2018-05-08T12:10:38.035Z,25.90
2018-05-08T12:13:05.503Z,26.40
2018-05-08T12:15:32.937Z,26.70
2018-05-08T12:18:01.170Z,27.40
2018-05-08T12:20:28.611Z,27.40
2018-05-08T12:22:56.102Z,27.90
2018-05-08T12:25:23.610Z,28.40
2018-05-08T12:27:51.037Z,28.70
2018-05-08T12:30:18.452Z,28.40
2018-05-08T12:32:45.878Z,28.80
2018-05-08T12:35:13.354Z,29.30
2018-05-08T12:37:40.811Z,29.70
2018-05-08T12:40:08.241Z,29.80
2018-05-08T12:42:35.643Z,29.80
2018-05-08T12:45:03.061Z,30.10
2018-05-08T12:47:30.524Z,30.30
2018-05-08T12:49:57.932Z,30.40
2018-05-08T12:52:26.154Z,30.80
2018-05-08T12:54:53.566Z,30.80
2018-05-08T12:57:21.092Z,30.90
2018-05-08T12:59:48.496Z,31.50
2018-05-08T13:02:15.927Z,32.40
2018-05-08T13:04:43.341Z,32.50
2018-05-08T13:07:10.783Z,32.00
2018-05-08T13:09:39.423Z,31.60
2018-05-08T13:12:08.569Z,31.60
2018-05-08T13:14:35.978Z,31.50
2018-05-08T13:17:03.395Z,31.90
2018-05-08T13:19:30.997Z,32.40
2018-05-08T13:21:58.431Z,32.60
2018-05-08T13:24:26.011Z,32.50
2018-05-08T13:26:54.256Z,31.80
2018-05-08T13:29:22.443Z,32.10
2018-05-08T13:31:49.952Z,32.10
2018-05-08T13:34:17.425Z,31.90
2018-05-08T13:36:44.884Z,31.50
2018-05-08T13:39:12.352Z,31.80
2018-05-08T13:41:39.825Z,31.70
2018-05-08T13:44:08.328Z,31.70
2018-05-08T13:46:35.782Z,31.90
2018-05-08T13:49:03.256Z,32.40
2018-05-08T13:51:30.740Z,31.90
2018-05-08T13:53:58.155Z,31.80
2018-05-08T13:56:26.384Z,31.60
2018-05-08T13:58:53.801Z,31.60
2018-05-08T14:01:21.222Z,31.80
2018-05-08T14:03:48.695Z,31.80
2018-05-08T14:06:16.108Z,31.90
2018-05-08T14:08:43.622Z,31.80
2018-05-08T14:11:11.052Z,31.30
2018-05-08T14:13:38.554Z,31.30
2018-05-08T14:16:05.989Z,31.10
2018-05-08T14:18:33.422Z,31.80
2018-05-08T14:21:00.873Z,31.60
2018-05-08T14:23:28.280Z,31.60
2018-05-08T14:25:55.833Z,31.20
2018-05-08T14:28:23.545Z,31.60
2018-05-08T14:30:51.732Z,31.90
2018-05-08T14:33:19.927Z,31.90
2018-05-08T14:35:48.091Z,32.30
2018-05-08T14:38:15.611Z,32.30
2018-05-08T14:40:43.049Z,32.80
2018-05-08T14:43:11.453Z,32.00
2018-05-08T14:45:38.925Z,32.00
2018-05-08T14:48:07.096Z,33.20
2018-05-08T14:50:35.346Z,33.30
2018-05-08T14:53:02.838Z,33.30
2018-05-08T14:55:30.380Z,33.80
2018-05-08T14:57:57.809Z,33.30
2018-05-08T15:00:25.285Z,32.80
2018-05-08T15:02:53.578Z,31.90
2018-05-08T15:05:21.724Z,31.60
2018-05-08T15:07:49.913Z,31.60
2018-05-08T15:10:18.092Z,31.10
2018-05-08T15:12:46.366Z,31.00
2018-05-08T15:15:13.885Z,30.90
2018-05-08T15:17:42.163Z,30.60
2018-05-08T15:20:09.688Z,30.60
2018-05-08T15:22:37.118Z,30.90
2018-05-08T15:25:04.523Z,30.70
2018-05-08T15:27:31.952Z,30.30
2018-05-08T15:29:59.379Z,30.50
2018-05-08T15:32:26.828Z,31.00
2018-05-08T15:34:54.241Z,30.80
2018-05-08T15:37:22.421Z,30.60
2018-05-08T15:39:50.621Z,31.00
2018-05-08T15:42:18.076Z,31.00
2018-05-08T15:44:46.273Z,30.10
2018-05-08T15:47:13.733Z,30.10
2018-05-08T15:49:42.824Z,29.70
2018-05-08T15:52:10.288Z,29.70
2018-05-08T15:54:37.695Z,29.10
2018-05-08T15:57:05.170Z,28.70
2018-05-08T15:59:32.731Z,28.80
2018-05-08T16:02:00.160Z,28.80
2018-05-08T16:04:27.693Z,28.80
2018-05-08T16:06:55.088Z,28.80
2018-05-08T16:09:22.515Z,28.50
2018-05-08T16:11:49.917Z,28.30
2018-05-08T16:14:17.340Z,28.20
2018-05-08T16:16:44.789Z,28.10
2018-05-08T16:19:12.524Z,27.80
2018-05-08T16:21:39.969Z,27.60
2018-05-08T16:24:07.368Z,27.70
2018-05-08T16:26:34.811Z,27.60
2018-05-08T16:29:02.222Z,27.50
2018-05-08T16:31:30.408Z,27.10
2018-05-08T16:33:57.824Z,27.00
2018-05-08T16:36:25.278Z,26.80
2018-05-08T16:38:53.450Z,26.70
2018-05-08T16:41:21.630Z,26.60
2018-05-08T16:43:49.847Z,26.50
2018-05-08T16:46:18.016Z,26.50
2018-05-08T16:48:46.193Z,26.50
2018-05-08T16:51:14.386Z,26.50
2018-05-08T16:53:43.496Z,26.50
2018-05-08T16:56:11.000Z,26.50
2018-05-08T16:58:38.409Z,26.40
2018-05-08T17:01:06.585Z,26.30
2018-05-08T17:03:34.013Z,26.30
2018-05-08T17:06:01.456Z,26.30
2018-05-08T17:08:28.877Z,26.40
2018-05-08T17:10:56.318Z,26.50
2018-05-08T17:13:23.816Z,26.60
2018-05-08T17:15:51.291Z,26.60
2018-05-08T17:18:18.700Z,26.60
2018-05-08T17:20:46.192Z,26.50
2018-05-08T17:23:14.538Z,26.60
2018-05-08T17:25:43.714Z,26.50
2018-05-08T17:28:11.894Z,26.40
2018-05-08T17:30:39.354Z,26.40
2018-05-08T17:33:06.933Z,26.50
2018-05-08T17:35:34.401Z,26.50
2018-05-08T17:38:01.853Z,26.50
2018-05-08T17:40:29.307Z,26.50
2018-05-08T17:42:56.904Z,26.40
2018-05-08T17:45:24.316Z,26.40
2018-05-08T17:47:52.030Z,26.30
2018-05-08T17:50:20.234Z,26.10
2018-05-08T17:52:47.640Z,26.10
2018-05-08T17:55:15.084Z,26.10
2018-05-08T17:57:42.500Z,26.20
2018-05-08T18:00:10.812Z,25.90
2018-05-08T18:02:38.272Z,25.90
2018-05-08T18:05:05.779Z,25.90
2018-05-08T18:07:33.229Z,25.80
2018-05-08T18:10:00.650Z,25.80
2018-05-08T18:12:28.063Z,25.60
2018-05-08T18:14:55.474Z,25.40
2018-05-08T18:17:23.183Z,25.30
2018-05-08T18:19:50.504Z,25.10
2018-05-08T18:22:17.927Z,25.00
2018-05-08T18:24:45.340Z,24.80
2018-05-08T18:27:12.775Z,24.70
2018-05-08T18:29:40.238Z,24.50
2018-05-08T18:32:07.712Z,24.30
2018-05-08T18:34:35.172Z,24.20
2018-05-08T18:37:02.747Z,24.00
2018-05-08T18:39:30.161Z,23.80
2018-05-08T18:41:57.689Z,23.70
2018-05-08T18:44:25.157Z,23.60
2018-05-08T18:46:52.576Z,23.50
2018-05-08T18:51:45.553Z,23.40
2018-05-08T18:54:12.989Z,23.30
2018-05-08T18:56:40.444Z,23.20
2018-05-08T18:59:08.628Z,23.00
2018-05-08T19:01:36.047Z,23.00
2018-05-08T19:04:03.467Z,23.00
2018-05-08T19:06:31.805Z,23.00
2018-05-08T19:08:59.228Z,22.90
2018-05-08T19:11:32.346Z,22.90
2018-05-08T19:13:59.803Z,22.80
2018-05-08T19:16:27.260Z,22.80
2018-05-08T19:19:01.180Z,22.70
2018-05-08T19:21:28.649Z,22.60
2018-05-08T19:24:02.637Z,22.50
2018-05-08T19:26:30.107Z,22.50
2018-05-08T19:29:03.085Z,22.50
2018-05-08T19:31:30.539Z,22.40
2018-05-08T19:33:58.095Z,22.30
2018-05-08T19:36:31.326Z,22.20
2018-05-08T19:38:58.743Z,22.20
2018-05-08T19:41:26.931Z,22.10
2018-05-08T19:43:55.113Z,22.10
2018-05-08T19:46:23.309Z,22.00
2018-05-08T19:48:51.509Z,21.90
2018-05-08T19:51:18.920Z,21.90
2018-05-08T19:53:46.883Z,21.90
2018-05-08T19:56:14.325Z,21.80
2018-05-08T19:58:41.797Z,21.80
2018-05-08T20:01:09.252Z,21.70
2018-05-08T20:03:36.757Z,21.70
2018-05-08T20:06:04.168Z,21.70
2018-05-08T20:08:32.362Z,21.60
2018-05-08T20:10:59.865Z,21.50
2018-05-08T20:13:27.450Z,21.50
2018-05-08T20:15:54.887Z,21.50
2018-05-08T20:18:23.065Z,21.50
2018-05-08T20:20:51.247Z,21.40
2018-05-08T20:23:19.428Z,21.30
2018-05-08T20:25:48.150Z,21.30
2018-05-08T20:28:15.617Z,21.30
2018-05-08T20:30:43.078Z,21.30
2018-05-08T20:33:10.453Z,21.30
2018-05-08T20:35:37.872Z,21.30
2018-05-08T20:38:05.284Z,21.20
2018-05-08T20:40:32.766Z,21.20
2018-05-08T20:43:00.171Z,21.10
2018-05-08T20:45:27.597Z,21.10
2018-05-08T20:47:55.014Z,21.10
2018-05-08T20:50:22.471Z,21.10
2018-05-08T20:52:49.872Z,21.00
2018-05-08T20:55:18.688Z,20.90
2018-05-08T20:57:47.888Z,20.90
2018-05-08T21:00:16.092Z,20.80
2018-05-08T21:02:43.569Z,20.80
2018-05-08T21:05:11.053Z,20.80
2018-05-08T21:07:38.576Z,20.70
2018-05-08T21:10:06.914Z,20.70
2018-05-08T21:12:34.338Z,20.60
2018-05-08T21:15:01.751Z,20.60
2018-05-08T21:17:29.160Z,20.60
2018-05-08T21:19:56.572Z,20.60
2018-05-08T21:22:23.997Z,20.50
2018-05-08T21:24:52.941Z,20.40
2018-05-08T21:27:20.362Z,20.40
2018-05-08T21:29:54.271Z,20.40
2018-05-08T21:32:21.698Z,20.30
2018-05-08T21:34:49.124Z,20.30
2018-05-08T21:37:16.536Z,20.30
2018-05-08T21:39:44.067Z,20.30
2018-05-08T21:42:11.472Z,20.20
2018-05-08T21:44:38.892Z,20.10
2018-05-08T21:47:06.334Z,20.10
2018-05-08T21:49:33.757Z,20.00
2018-05-08T21:52:01.218Z,20.00
2018-05-08T21:54:28.636Z,19.90
2018-05-08T21:56:56.090Z,19.90
2018-05-08T21:59:23.669Z,19.90
2018-05-08T22:01:51.124Z,19.90
2018-05-08T22:04:19.998Z,19.80
2018-05-08T22:06:47.454Z,19.80
2018-05-08T22:09:14.867Z,19.80
2018-05-08T22:11:42.277Z,19.80
2018-05-08T22:14:09.693Z,19.70
2018-05-08T22:16:37.104Z,19.70
2018-05-08T22:19:04.534Z,19.70
2018-05-08T22:21:32.003Z,19.60
2018-05-08T22:24:00.177Z,19.50
2018-05-08T22:26:29.345Z,19.50
2018-05-08T22:28:56.812Z,19.40
2018-05-08T22:31:24.271Z,19.40
2018-05-08T22:33:51.833Z,19.30
2018-05-08T22:51:26.793Z,18.90
2018-05-08T22:53:55.001Z,18.80
2018-05-08T22:56:22.416Z,18.80
2018-05-08T22:58:49.916Z,18.70
2018-05-08T23:01:17.368Z,18.70
2018-05-08T23:03:44.828Z,18.60
2018-05-08T23:06:12.242Z,18.60
2018-05-08T23:08:39.663Z,18.50
2018-05-08T23:11:07.130Z,18.50
2018-05-08T23:13:34.557Z,18.40
2018-05-08T23:16:02.066Z,18.30
2018-05-08T23:18:29.472Z,18.30
2018-05-08T23:20:56.892Z,18.20
2018-05-08T23:23:24.353Z,18.20
2018-05-08T23:25:52.520Z,18.10
2018-05-08T23:28:21.689Z,18.10
2018-05-08T23:30:49.114Z,18.10
2018-05-08T23:33:17.303Z,18.00
2018-05-08T23:35:44.734Z,18.00
2018-05-08T23:38:12.140Z,18.00
2018-05-08T23:40:39.613Z,17.90
2018-05-08T23:43:07.095Z,18.00
2018-05-08T23:45:34.563Z,17.90
2018-05-08T23:48:02.054Z,17.90
2018-05-08T23:50:29.457Z,17.80
2018-05-08T23:52:56.890Z,17.80
2018-05-08T23:55:24.295Z,17.80
2018-05-08T23:57:51.920Z,17.70
